sensor_id;sensor_type;location;lat;lon;timestamp;P1;durP1;ratioP1;P2;durP2;ratioP2
33266;SDS011;19638;49.080;11.896;2023-05-20T00:01:54;5.93;;;4.32;;
33266;SDS011;19638;49.080;11.896;2023-05-20T00:05:57;7.35;;;4.88;;
33266;SDS011;19638;49.080;11.896;2023-05-20T00:10:02;6.75;;;4.93;;
33266;SDS011;19638;49.080;11.896;2023-05-20T00:14:08;5.50;;;4.88;;
33266;SDS011;19638;49.080;11.896;2023-05-20T00:18:13;6.82;;;5.05;;
33266;SDS011;19638;49.080;11.896;2023-05-20T00:22:17;5.68;;;4.57;;
33266;SDS011;19638;49.080;11.896;2023-05-20T00:26:23;6.68;;;5.28;;
33266;SDS011;19638;49.080;11.896;2023-05-20T00:30:27;6.10;;;5.32;;
33266;SDS011;19638;49.080;11.896;2023-05-20T00:34:32;6.90;;;5.07;;
33266;SDS011;19638;49.080;11.896;2023-05-20T00:38:35;6.72;;;5.03;;
33266;SDS011;19638;49.080;11.896;2023-05-20T00:42:38;7.43;;;5.20;;
33266;SDS011;19638;49.080;11.896;2023-05-20T00:46:44;6.85;;;4.70;;
33266;SDS011;19638;49.080;11.896;2023-05-20T00:50:51;7.22;;;5.70;;
33266;SDS011;19638;49.080;11.896;2023-05-20T00:55:03;5.68;;;5.13;;
33266;SDS011;19638;49.080;11.896;2023-05-20T00:59:14;6.25;;;5.40;;
33266;SDS011;19638;49.080;11.896;2023-05-20T01:03:18;9.25;;;5.50;;
33266;SDS011;19638;49.080;11.896;2023-05-20T01:07:23;8.02;;;5.65;;
33266;SDS011;19638;49.080;11.896;2023-05-20T01:11:33;6.10;;;5.43;;
33266;SDS011;19638;49.080;11.896;2023-05-20T01:15:40;8.98;;;5.72;;
33266;SDS011;19638;49.080;11.896;2023-05-20T01:19:44;8.40;;;5.22;;
33266;SDS011;19638;49.080;11.896;2023-05-20T01:23:52;8.68;;;5.95;;
33266;SDS011;19638;49.080;11.896;2023-05-20T01:27:56;9.07;;;6.18;;
33266;SDS011;19638;49.080;11.896;2023-05-20T01:31:59;13.55;;;6.78;;
33266;SDS011;19638;49.080;11.896;2023-05-20T01:36:03;8.27;;;6.20;;
33266;SDS011;19638;49.080;11.896;2023-05-20T01:40:10;9.00;;;6.28;;
33266;SDS011;19638;49.080;11.896;2023-05-20T01:44:16;8.75;;;6.20;;
33266;SDS011;19638;49.080;11.896;2023-05-20T01:48:19;7.93;;;5.85;;
33266;SDS011;19638;49.080;11.896;2023-05-20T01:52:22;6.88;;;5.47;;
33266;SDS011;19638;49.080;11.896;2023-05-20T01:56:27;10.68;;;6.30;;
33266;SDS011;19638;49.080;11.896;2023-05-20T02:00:30;11.50;;;6.13;;
33266;SDS011;19638;49.080;11.896;2023-05-20T02:04:37;7.85;;;6.05;;
33266;SDS011;19638;49.080;11.896;2023-05-20T02:08:48;9.57;;;6.22;;
33266;SDS011;19638;49.080;11.896;2023-05-20T02:12:52;11.30;;;6.53;;
33266;SDS011;19638;49.080;11.896;2023-05-20T02:16:56;9.45;;;6.05;;
33266;SDS011;19638;49.080;11.896;2023-05-20T02:21:06;8.68;;;5.75;;
33266;SDS011;19638;49.080;11.896;2023-05-20T02:25:09;9.27;;;6.47;;
33266;SDS011;19638;49.080;11.896;2023-05-20T02:29:16;9.20;;;6.63;;
33266;SDS011;19638;49.080;11.896;2023-05-20T02:33:20;9.82;;;6.88;;
33266;SDS011;19638;49.080;11.896;2023-05-20T02:37:23;10.93;;;6.80;;
33266;SDS011;19638;49.080;11.896;2023-05-20T02:41:29;8.15;;;6.07;;
33266;SDS011;19638;49.080;11.896;2023-05-20T02:45:38;9.20;;;6.57;;
33266;SDS011;19638;49.080;11.896;2023-05-20T02:49:42;10.68;;;7.18;;
33266;SDS011;19638;49.080;11.896;2023-05-20T02:53:45;8.63;;;6.88;;
33266;SDS011;19638;49.080;11.896;2023-05-20T02:57:48;11.93;;;8.10;;
33266;SDS011;19638;49.080;11.896;2023-05-20T03:01:55;11.32;;;7.25;;
33266;SDS011;19638;49.080;11.896;2023-05-20T03:06:00;11.63;;;8.15;;
33266;SDS011;19638;49.080;11.896;2023-05-20T03:10:04;9.95;;;7.28;;
33266;SDS011;19638;49.080;11.896;2023-05-20T03:14:08;10.90;;;8.02;;
33266;SDS011;19638;49.080;11.896;2023-05-20T03:18:15;11.57;;;8.50;;
33266;SDS011;19638;49.080;11.896;2023-05-20T03:22:18;14.80;;;7.95;;
33266;SDS011;19638;49.080;11.896;2023-05-20T03:26:21;10.93;;;7.65;;
33266;SDS011;19638;49.080;11.896;2023-05-20T03:30:30;12.63;;;8.13;;
33266;SDS011;19638;49.080;11.896;2023-05-20T03:34:36;13.07;;;7.95;;
33266;SDS011;19638;49.080;11.896;2023-05-20T03:38:39;14.13;;;8.07;;
33266;SDS011;19638;49.080;11.896;2023-05-20T03:42:42;14.48;;;8.30;;
33266;SDS011;19638;49.080;11.896;2023-05-20T03:46:50;11.93;;;8.77;;
33266;SDS011;19638;49.080;11.896;2023-05-20T03:50:54;12.02;;;7.80;;
33266;SDS011;19638;49.080;11.896;2023-05-20T03:54:58;13.75;;;8.88;;
33266;SDS011;19638;49.080;11.896;2023-05-20T03:59:03;12.90;;;8.75;;
33266;SDS011;19638;49.080;11.896;2023-05-20T04:03:06;9.90;;;7.63;;
33266;SDS011;19638;49.080;11.896;2023-05-20T04:07:12;11.02;;;8.38;;
33266;SDS011;19638;49.080;11.896;2023-05-20T04:11:16;15.70;;;9.00;;
33266;SDS011;19638;49.080;11.896;2023-05-20T04:15:21;14.80;;;9.10;;
33266;SDS011;19638;49.080;11.896;2023-05-20T04:19:25;14.15;;;9.57;;
33266;SDS011;19638;49.080;11.896;2023-05-20T04:23:30;10.63;;;7.68;;
33266;SDS011;19638;49.080;11.896;2023-05-20T04:27:35;13.73;;;9.10;;
33266;SDS011;19638;49.080;11.896;2023-05-20T04:31:41;14.35;;;8.82;;
33266;SDS011;19638;49.080;11.896;2023-05-20T04:35:46;13.60;;;8.93;;
33266;SDS011;19638;49.080;11.896;2023-05-20T04:39:50;13.93;;;9.27;;
33266;SDS011;19638;49.080;11.896;2023-05-20T04:43:54;13.55;;;8.57;;
33266;SDS011;19638;49.080;11.896;2023-05-20T04:48:00;11.93;;;9.02;;
33266;SDS011;19638;49.080;11.896;2023-05-20T04:52:06;13.80;;;7.82;;
33266;SDS011;19638;49.080;11.896;2023-05-20T04:56:11;14.00;;;8.93;;
33266;SDS011;19638;49.080;11.896;2023-05-20T05:00:16;12.95;;;9.07;;
33266;SDS011;19638;49.080;11.896;2023-05-20T05:04:24;12.88;;;8.95;;
33266;SDS011;19638;49.080;11.896;2023-05-20T05:08:27;10.50;;;8.25;;
33266;SDS011;19638;49.080;11.896;2023-05-20T05:12:39;11.63;;;8.00;;
33266;SDS011;19638;49.080;11.896;2023-05-20T05:16:42;11.75;;;7.70;;
33266;SDS011;19638;49.080;11.896;2023-05-20T05:20:45;14.50;;;8.98;;
33266;SDS011;19638;49.080;11.896;2023-05-20T05:25:01;12.60;;;9.55;;
33266;SDS011;19638;49.080;11.896;2023-05-20T05:29:07;13.35;;;9.38;;
33266;SDS011;19638;49.080;11.896;2023-05-20T05:33:13;10.30;;;7.70;;
33266;SDS011;19638;49.080;11.896;2023-05-20T05:37:19;11.43;;;8.23;;
33266;SDS011;19638;49.080;11.896;2023-05-20T05:41:25;12.63;;;8.15;;
33266;SDS011;19638;49.080;11.896;2023-05-20T05:45:30;12.68;;;8.88;;
33266;SDS011;19638;49.080;11.896;2023-05-20T05:49:34;12.80;;;9.07;;
33266;SDS011;19638;49.080;11.896;2023-05-20T05:53:39;10.95;;;8.18;;
33266;SDS011;19638;49.080;11.896;2023-05-20T05:57:42;12.38;;;8.35;;
33266;SDS011;19638;49.080;11.896;2023-05-20T06:01:48;12.82;;;8.32;;
33266;SDS011;19638;49.080;11.896;2023-05-20T06:05:53;15.63;;;8.93;;
33266;SDS011;19638;49.080;11.896;2023-05-20T06:09:58;13.07;;;9.15;;
33266;SDS011;19638;49.080;11.896;2023-05-20T06:14:04;12.77;;;9.13;;
33266;SDS011;19638;49.080;11.896;2023-05-20T06:18:10;12.95;;;8.00;;
33266;SDS011;19638;49.080;11.896;2023-05-20T06:22:16;12.80;;;8.82;;
33266;SDS011;19638;49.080;11.896;2023-05-20T06:26:19;13.52;;;9.23;;
33266;SDS011;19638;49.080;11.896;2023-05-20T06:30:24;13.52;;;8.65;;
33266;SDS011;19638;49.080;11.896;2023-05-20T06:34:29;14.32;;;7.75;;
33266;SDS011;19638;49.080;11.896;2023-05-20T06:38:35;13.13;;;9.88;;
33266;SDS011;19638;49.080;11.896;2023-05-20T06:42:38;11.68;;;8.38;;
33266;SDS011;19638;49.080;11.896;2023-05-20T06:46:43;13.27;;;8.88;;
33266;SDS011;19638;49.080;11.896;2023-05-20T06:50:48;10.90;;;8.20;;
33266;SDS011;19638;49.080;11.896;2023-05-20T06:54:51;12.90;;;8.65;;
33266;SDS011;19638;49.080;11.896;2023-05-20T06:58:55;14.07;;;8.90;;
33266;SDS011;19638;49.080;11.896;2023-05-20T07:02:59;13.70;;;8.80;;
33266;SDS011;19638;49.080;11.896;2023-05-20T07:07:04;11.50;;;8.43;;
33266;SDS011;19638;49.080;11.896;2023-05-20T07:11:07;11.80;;;7.82;;
33266;SDS011;19638;49.080;11.896;2023-05-20T07:15:10;12.77;;;8.57;;
33266;SDS011;19638;49.080;11.896;2023-05-20T07:19:16;8.65;;;7.65;;
33266;SDS011;19638;49.080;11.896;2023-05-20T07:23:21;9.65;;;7.70;;
33266;SDS011;19638;49.080;11.896;2023-05-20T07:27:27;11.48;;;7.82;;
33266;SDS011;19638;49.080;11.896;2023-05-20T07:31:34;10.57;;;8.00;;
33266;SDS011;19638;49.080;11.896;2023-05-20T07:35:38;12.52;;;8.40;;
33266;SDS011;19638;49.080;11.896;2023-05-20T07:39:42;10.82;;;7.07;;
33266;SDS011;19638;49.080;11.896;2023-05-20T07:43:45;8.25;;;6.35;;
33266;SDS011;19638;49.080;11.896;2023-05-20T07:47:49;9.77;;;6.88;;
33266;SDS011;19638;49.080;11.896;2023-05-20T07:51:57;9.57;;;6.53;;
33266;SDS011;19638;49.080;11.896;2023-05-20T07:56:06;14.20;;;6.45;;
33266;SDS011;19638;49.080;11.896;2023-05-20T08:00:10;11.48;;;7.18;;
33266;SDS011;19638;49.080;11.896;2023-05-20T08:04:16;7.88;;;6.78;;
33266;SDS011;19638;49.080;11.896;2023-05-20T08:08:20;8.73;;;6.68;;
33266;SDS011;19638;49.080;11.896;2023-05-20T08:12:27;7.30;;;6.60;;
33266;SDS011;19638;49.080;11.896;2023-05-20T08:16:30;8.07;;;6.65;;
33266;SDS011;19638;49.080;11.896;2023-05-20T08:20:33;9.55;;;6.70;;
33266;SDS011;19638;49.080;11.896;2023-05-20T08:24:42;18.65;;;6.95;;
33266;SDS011;19638;49.080;11.896;2023-05-20T08:28:49;8.18;;;6.95;;
33266;SDS011;19638;49.080;11.896;2023-05-20T08:32:52;9.95;;;6.85;;
33266;SDS011;19638;49.080;11.896;2023-05-20T08:36:58;11.45;;;6.50;;
33266;SDS011;19638;49.080;11.896;2023-05-20T08:41:03;10.50;;;6.85;;
33266;SDS011;19638;49.080;11.896;2023-05-20T08:45:11;8.38;;;6.47;;
33266;SDS011;19638;49.080;11.896;2023-05-20T08:49:14;9.85;;;7.10;;
33266;SDS011;19638;49.080;11.896;2023-05-20T08:53:17;11.10;;;7.13;;
33266;SDS011;19638;49.080;11.896;2023-05-20T08:57:21;8.15;;;6.90;;
33266;SDS011;19638;49.080;11.896;2023-05-20T09:01:28;8.52;;;6.47;;
33266;SDS011;19638;49.080;11.896;2023-05-20T09:05:37;7.38;;;6.28;;
33266;SDS011;19638;49.080;11.896;2023-05-20T09:09:47;7.72;;;6.55;;
33266;SDS011;19638;49.080;11.896;2023-05-20T09:13:51;8.15;;;5.90;;
33266;SDS011;19638;49.080;11.896;2023-05-20T09:18:05;7.10;;;6.40;;
33266;SDS011;19638;49.080;11.896;2023-05-20T09:22:12;7.68;;;6.85;;
33266;SDS011;19638;49.080;11.896;2023-05-20T09:26:16;7.18;;;6.05;;
33266;SDS011;19638;49.080;11.896;2023-05-20T09:30:20;7.57;;;6.20;;
33266;SDS011;19638;49.080;11.896;2023-05-20T09:34:34;8.98;;;6.30;;
33266;SDS011;19638;49.080;11.896;2023-05-20T09:38:38;11.38;;;6.78;;
33266;SDS011;19638;49.080;11.896;2023-05-20T09:42:43;6.97;;;6.28;;
33266;SDS011;19638;49.080;11.896;2023-05-20T09:46:56;9.18;;;6.30;;
33266;SDS011;19638;49.080;11.896;2023-05-20T09:51:03;7.22;;;6.53;;
33266;SDS011;19638;49.080;11.896;2023-05-20T09:55:10;8.85;;;6.70;;
33266;SDS011;19638;49.080;11.896;2023-05-20T09:59:14;6.88;;;6.15;;
33266;SDS011;19638;49.080;11.896;2023-05-20T10:03:18;9.85;;;6.03;;
33266;SDS011;19638;49.080;11.896;2023-05-20T10:07:35;9.15;;;6.30;;
33266;SDS011;19638;49.080;11.896;2023-05-20T10:12:02;8.30;;;6.60;;
33266;SDS011;19638;49.080;11.896;2023-05-20T10:16:15;8.65;;;6.45;;
33266;SDS011;19638;49.080;11.896;2023-05-20T10:20:28;8.75;;;6.72;;
33266;SDS011;19638;49.080;11.896;2023-05-20T10:24:34;10.50;;;6.63;;
33266;SDS011;19638;49.080;11.896;2023-05-20T10:28:41;8.73;;;6.28;;
33266;SDS011;19638;49.080;11.896;2023-05-20T10:32:48;9.18;;;6.40;;
33266;SDS011;19638;49.080;11.896;2023-05-20T10:36:58;7.22;;;6.50;;
33266;SDS011;19638;49.080;11.896;2023-05-20T10:41:08;9.13;;;6.78;;
33266;SDS011;19638;49.080;11.896;2023-05-20T10:45:25;10.18;;;6.45;;
33266;SDS011;19638;49.080;11.896;2023-05-20T10:49:33;7.93;;;6.28;;
33266;SDS011;19638;49.080;11.896;2023-05-20T10:53:37;6.32;;;5.63;;
33266;SDS011;19638;49.080;11.896;2023-05-20T10:57:44;6.93;;;6.07;;
33266;SDS011;19638;49.080;11.896;2023-05-20T11:01:53;7.90;;;6.10;;
33266;SDS011;19638;49.080;11.896;2023-05-20T11:05:56;8.55;;;6.50;;
33266;SDS011;19638;49.080;11.896;2023-05-20T11:10:06;6.93;;;5.93;;
33266;SDS011;19638;49.080;11.896;2023-05-20T11:14:14;7.55;;;6.38;;
33266;SDS011;19638;49.080;11.896;2023-05-20T11:18:21;7.22;;;6.20;;
33266;SDS011;19638;49.080;11.896;2023-05-20T11:22:24;7.18;;;6.05;;
33266;SDS011;19638;49.080;11.896;2023-05-20T11:26:28;13.35;;;6.40;;
33266;SDS011;19638;49.080;11.896;2023-05-20T11:30:35;7.95;;;5.82;;
33266;SDS011;19638;49.080;11.896;2023-05-20T11:34:39;8.25;;;5.90;;
33266;SDS011;19638;49.080;11.896;2023-05-20T11:38:47;7.50;;;6.03;;
33266;SDS011;19638;49.080;11.896;2023-05-20T11:42:51;8.68;;;6.35;;
33266;SDS011;19638;49.080;11.896;2023-05-20T11:47:00;7.88;;;6.13;;
33266;SDS011;19638;49.080;11.896;2023-05-20T11:51:06;7.50;;;6.28;;
33266;SDS011;19638;49.080;11.896;2023-05-20T11:55:14;6.63;;;5.57;;
33266;SDS011;19638;49.080;11.896;2023-05-20T11:59:19;6.65;;;5.85;;
33266;SDS011;19638;49.080;11.896;2023-05-20T12:03:31;9.80;;;6.63;;
33266;SDS011;19638;49.080;11.896;2023-05-20T12:07:38;10.27;;;7.38;;
33266;SDS011;19638;49.080;11.896;2023-05-20T12:11:43;8.98;;;6.28;;
33266;SDS011;19638;49.080;11.896;2023-05-20T12:15:47;10.15;;;5.97;;
33266;SDS011;19638;49.080;11.896;2023-05-20T12:19:52;9.05;;;5.55;;
33266;SDS011;19638;49.080;11.896;2023-05-20T12:23:55;9.85;;;5.38;;
33266;SDS011;19638;49.080;11.896;2023-05-20T12:28:00;7.15;;;5.60;;
33266;SDS011;19638;49.080;11.896;2023-05-20T12:32:04;7.55;;;5.60;;
33266;SDS011;19638;49.080;11.896;2023-05-20T12:36:09;9.52;;;5.45;;
33266;SDS011;19638;49.080;11.896;2023-05-20T12:40:13;8.32;;;6.15;;
33266;SDS011;19638;49.080;11.896;2023-05-20T12:44:16;6.60;;;4.97;;
33266;SDS011;19638;49.080;11.896;2023-05-20T12:48:21;6.05;;;5.43;;
33266;SDS011;19638;49.080;11.896;2023-05-20T12:52:26;7.60;;;5.20;;
33266;SDS011;19638;49.080;11.896;2023-05-20T12:56:33;6.07;;;5.40;;
33266;SDS011;19638;49.080;11.896;2023-05-20T13:00:38;9.38;;;5.53;;
33266;SDS011;19638;49.080;11.896;2023-05-20T13:04:44;6.10;;;5.45;;
33266;SDS011;19638;49.080;11.896;2023-05-20T13:08:51;8.40;;;6.47;;
33266;SDS011;19638;49.080;11.896;2023-05-20T13:12:55;7.93;;;6.60;;
33266;SDS011;19638;49.080;11.896;2023-05-20T13:17:02;8.65;;;5.75;;
33266;SDS011;19638;49.080;11.896;2023-05-20T13:21:07;8.20;;;6.00;;
33266;SDS011;19638;49.080;11.896;2023-05-20T13:25:12;7.05;;;5.60;;
33266;SDS011;19638;49.080;11.896;2023-05-20T13:29:15;10.00;;;6.10;;
33266;SDS011;19638;49.080;11.896;2023-05-20T13:33:24;7.32;;;5.53;;
33266;SDS011;19638;49.080;11.896;2023-05-20T13:37:27;6.00;;;5.38;;
33266;SDS011;19638;49.080;11.896;2023-05-20T13:41:33;7.22;;;5.97;;
33266;SDS011;19638;49.080;11.896;2023-05-20T13:45:39;7.88;;;5.80;;
33266;SDS011;19638;49.080;11.896;2023-05-20T13:49:42;6.05;;;5.45;;
33266;SDS011;19638;49.080;11.896;2023-05-20T13:53:45;8.52;;;5.88;;
33266;SDS011;19638;49.080;11.896;2023-05-20T13:57:50;6.22;;;5.13;;
33266;SDS011;19638;49.080;11.896;2023-05-20T14:01:55;7.22;;;5.93;;
33266;SDS011;19638;49.080;11.896;2023-05-20T14:05:58;8.30;;;5.97;;
33266;SDS011;19638;49.080;11.896;2023-05-20T14:10:04;9.75;;;6.00;;
33266;SDS011;19638;49.080;11.896;2023-05-20T14:14:11;7.00;;;5.70;;
33266;SDS011;19638;49.080;11.896;2023-05-20T14:18:17;7.72;;;6.15;;
33266;SDS011;19638;49.080;11.896;2023-05-20T14:22:22;8.85;;;6.30;;
33266;SDS011;19638;49.080;11.896;2023-05-20T14:26:26;6.65;;;5.90;;
33266;SDS011;19638;49.080;11.896;2023-05-20T14:30:31;6.85;;;5.55;;
33266;SDS011;19638;49.080;11.896;2023-05-20T14:34:37;7.40;;;6.18;;
33266;SDS011;19638;49.080;11.896;2023-05-20T14:38:42;7.15;;;5.63;;
33266;SDS011;19638;49.080;11.896;2023-05-20T14:42:51;11.40;;;5.78;;
33266;SDS011;19638;49.080;11.896;2023-05-20T14:46:58;10.10;;;6.03;;
33266;SDS011;19638;49.080;11.896;2023-05-20T14:51:03;6.55;;;5.90;;
33266;SDS011;19638;49.080;11.896;2023-05-20T14:55:06;12.43;;;5.80;;
33266;SDS011;19638;49.080;11.896;2023-05-20T14:59:10;8.95;;;5.70;;
33266;SDS011;19638;49.080;11.896;2023-05-20T15:03:14;7.35;;;5.28;;
33266;SDS011;19638;49.080;11.896;2023-05-20T15:07:17;10.02;;;5.88;;
33266;SDS011;19638;49.080;11.896;2023-05-20T15:11:26;8.23;;;6.15;;
33266;SDS011;19638;49.080;11.896;2023-05-20T15:15:29;6.68;;;5.10;;
33266;SDS011;19638;49.080;11.896;2023-05-20T15:19:38;7.75;;;5.30;;
33266;SDS011;19638;49.080;11.896;2023-05-20T15:23:44;6.72;;;5.63;;
33266;SDS011;19638;49.080;11.896;2023-05-20T15:27:49;8.70;;;6.22;;
33266;SDS011;19638;49.080;11.896;2023-05-20T15:31:53;6.53;;;5.65;;
33266;SDS011;19638;49.080;11.896;2023-05-20T15:35:58;6.38;;;5.78;;
33266;SDS011;19638;49.080;11.896;2023-05-20T15:40:03;7.07;;;5.43;;
33266;SDS011;19638;49.080;11.896;2023-05-20T15:44:07;6.25;;;5.65;;
33266;SDS011;19638;49.080;11.896;2023-05-20T15:48:14;7.88;;;5.57;;
33266;SDS011;19638;49.080;11.896;2023-05-20T15:52:19;8.63;;;5.40;;
33266;SDS011;19638;49.080;11.896;2023-05-20T15:56:25;6.82;;;6.00;;
33266;SDS011;19638;49.080;11.896;2023-05-20T16:00:31;7.30;;;5.75;;
33266;SDS011;19638;49.080;11.896;2023-05-20T16:04:37;9.30;;;5.85;;
33266;SDS011;19638;49.080;11.896;2023-05-20T16:08:45;7.05;;;5.90;;
33266;SDS011;19638;49.080;11.896;2023-05-20T16:12:49;6.63;;;5.97;;
33266;SDS011;19638;49.080;11.896;2023-05-20T16:16:56;15.32;;;6.28;;
33266;SDS011;19638;49.080;11.896;2023-05-20T16:21:01;9.80;;;5.82;;
33266;SDS011;19638;49.080;11.896;2023-05-20T16:25:09;7.53;;;6.03;;
33266;SDS011;19638;49.080;11.896;2023-05-20T16:29:13;8.38;;;6.35;;
33266;SDS011;19638;49.080;11.896;2023-05-20T16:33:17;9.45;;;6.00;;
33266;SDS011;19638;49.080;11.896;2023-05-20T16:37:23;8.23;;;6.15;;
33266;SDS011;19638;49.080;11.896;2023-05-20T16:41:28;8.52;;;6.35;;
33266;SDS011;19638;49.080;11.896;2023-05-20T16:45:33;10.57;;;6.45;;
33266;SDS011;19638;49.080;11.896;2023-05-20T16:49:39;6.75;;;6.05;;
33266;SDS011;19638;49.080;11.896;2023-05-20T16:53:42;16.08;;;11.27;;
33266;SDS011;19638;49.080;11.896;2023-05-20T16:57:47;7.63;;;5.80;;
33266;SDS011;19638;49.080;11.896;2023-05-20T17:01:50;6.72;;;5.68;;
33266;SDS011;19638;49.080;11.896;2023-05-20T17:05:54;7.60;;;5.63;;
33266;SDS011;19638;49.080;11.896;2023-05-20T17:10:01;7.72;;;5.90;;
33266;SDS011;19638;49.080;11.896;2023-05-20T17:14:08;7.95;;;5.50;;
33266;SDS011;19638;49.080;11.896;2023-05-20T17:18:11;9.95;;;6.03;;
33266;SDS011;19638;49.080;11.896;2023-05-20T17:22:17;10.35;;;5.80;;
33266;SDS011;19638;49.080;11.896;2023-05-20T17:26:20;8.35;;;5.85;;
33266;SDS011;19638;49.080;11.896;2023-05-20T17:30:28;8.88;;;5.82;;
33266;SDS011;19638;49.080;11.896;2023-05-20T17:34:33;7.53;;;6.07;;
33266;SDS011;19638;49.080;11.896;2023-05-20T17:38:39;10.32;;;6.45;;
33266;SDS011;19638;49.080;11.896;2023-05-20T17:42:47;11.05;;;6.50;;
33266;SDS011;19638;49.080;11.896;2023-05-20T17:46:54;12.25;;;6.20;;
33266;SDS011;19638;49.080;11.896;2023-05-20T17:50:58;7.97;;;6.28;;
33266;SDS011;19638;49.080;11.896;2023-05-20T17:55:02;9.82;;;6.90;;
33266;SDS011;19638;49.080;11.896;2023-05-20T17:59:07;9.57;;;5.82;;
33266;SDS011;19638;49.080;11.896;2023-05-20T18:03:15;7.43;;;6.50;;
33266;SDS011;19638;49.080;11.896;2023-05-20T18:07:19;10.25;;;6.78;;
33266;SDS011;19638;49.080;11.896;2023-05-20T18:11:27;7.88;;;6.45;;
33266;SDS011;19638;49.080;11.896;2023-05-20T18:15:34;7.80;;;6.18;;
33266;SDS011;19638;49.080;11.896;2023-05-20T18:19:39;8.60;;;6.65;;
33266;SDS011;19638;49.080;11.896;2023-05-20T18:23:47;8.43;;;6.75;;
33266;SDS011;19638;49.080;11.896;2023-05-20T18:27:52;8.77;;;6.45;;
33266;SDS011;19638;49.080;11.896;2023-05-20T18:31:57;15.23;;;8.00;;
33266;SDS011;19638;49.080;11.896;2023-05-20T18:36:02;12.57;;;6.85;;
33266;SDS011;19638;49.080;11.896;2023-05-20T18:40:07;8.13;;;6.57;;
33266;SDS011;19638;49.080;11.896;2023-05-20T18:44:14;8.88;;;6.85;;
33266;SDS011;19638;49.080;11.896;2023-05-20T18:48:18;11.57;;;7.43;;
33266;SDS011;19638;49.080;11.896;2023-05-20T18:52:29;11.95;;;7.55;;
33266;SDS011;19638;49.080;11.896;2023-05-20T18:56:35;15.07;;;8.82;;
33266;SDS011;19638;49.080;11.896;2023-05-20T19:00:38;13.45;;;8.10;;
33266;SDS011;19638;49.080;11.896;2023-05-20T19:04:44;11.10;;;7.57;;
33266;SDS011;19638;49.080;11.896;2023-05-20T19:08:52;10.10;;;7.10;;
33266;SDS011;19638;49.080;11.896;2023-05-20T19:12:55;12.80;;;7.75;;
33266;SDS011;19638;49.080;11.896;2023-05-20T19:16:58;9.52;;;6.95;;
33266;SDS011;19638;49.080;11.896;2023-05-20T19:21:02;9.70;;;7.45;;
33266;SDS011;19638;49.080;11.896;2023-05-20T19:25:12;13.57;;;7.80;;
33266;SDS011;19638;49.080;11.896;2023-05-20T19:29:15;9.20;;;6.65;;
33266;SDS011;19638;49.080;11.896;2023-05-20T19:33:19;16.27;;;8.57;;
33266;SDS011;19638;49.080;11.896;2023-05-20T19:37:25;10.00;;;7.57;;
33266;SDS011;19638;49.080;11.896;2023-05-20T19:41:30;13.68;;;7.75;;
33266;SDS011;19638;49.080;11.896;2023-05-20T19:45:33;9.68;;;7.38;;
33266;SDS011;19638;49.080;11.896;2023-05-20T19:49:41;9.55;;;7.22;;
33266;SDS011;19638;49.080;11.896;2023-05-20T19:53:44;12.50;;;6.88;;
33266;SDS011;19638;49.080;11.896;2023-05-20T19:57:49;9.32;;;7.47;;
33266;SDS011;19638;49.080;11.896;2023-05-20T20:01:53;12.32;;;8.00;;
33266;SDS011;19638;49.080;11.896;2023-05-20T20:05:57;15.25;;;9.43;;
33266;SDS011;19638;49.080;11.896;2023-05-20T20:10:00;12.85;;;8.88;;
33266;SDS011;19638;49.080;11.896;2023-05-20T20:14:04;13.90;;;9.27;;
33266;SDS011;19638;49.080;11.896;2023-05-20T20:18:07;14.98;;;9.45;;
33266;SDS011;19638;49.080;11.896;2023-05-20T20:22:14;13.80;;;8.45;;
33266;SDS011;19638;49.080;11.896;2023-05-20T20:26:21;15.32;;;9.85;;
33266;SDS011;19638;49.080;11.896;2023-05-20T20:30:27;14.27;;;10.23;;
33266;SDS011;19638;49.080;11.896;2023-05-20T20:34:32;12.65;;;9.20;;
33266;SDS011;19638;49.080;11.896;2023-05-20T20:38:36;12.25;;;8.88;;
33266;SDS011;19638;49.080;11.896;2023-05-20T20:42:39;20.10;;;9.75;;
33266;SDS011;19638;49.080;11.896;2023-05-20T20:46:48;12.85;;;9.07;;
33266;SDS011;19638;49.080;11.896;2023-05-20T20:50:58;14.82;;;9.38;;
33266;SDS011;19638;49.080;11.896;2023-05-20T20:55:06;17.92;;;9.52;;
33266;SDS011;19638;49.080;11.896;2023-05-20T20:59:12;13.07;;;9.73;;
33266;SDS011;19638;49.080;11.896;2023-05-20T21:03:19;15.05;;;8.45;;
33266;SDS011;19638;49.080;11.896;2023-05-20T21:07:24;13.70;;;9.38;;
33266;SDS011;19638;49.080;11.896;2023-05-20T21:11:27;16.42;;;9.38;;
33266;SDS011;19638;49.080;11.896;2023-05-20T21:15:34;13.02;;;9.90;;
33266;SDS011;19638;49.080;11.896;2023-05-20T21:19:39;15.80;;;10.05;;
33266;SDS011;19638;49.080;11.896;2023-05-20T21:23:44;14.23;;;10.40;;
33266;SDS011;19638;49.080;11.896;2023-05-20T21:27:47;15.88;;;9.85;;
33266;SDS011;19638;49.080;11.896;2023-05-20T21:31:51;15.13;;;10.13;;
33266;SDS011;19638;49.080;11.896;2023-05-20T21:35:56;14.48;;;9.90;;
33266;SDS011;19638;49.080;11.896;2023-05-20T21:40:00;13.93;;;9.90;;
33266;SDS011;19638;49.080;11.896;2023-05-20T21:44:03;12.98;;;9.35;;
33266;SDS011;19638;49.080;11.896;2023-05-20T21:48:09;11.32;;;8.85;;
33266;SDS011;19638;49.080;11.896;2023-05-20T21:52:19;11.10;;;8.73;;
33266;SDS011;19638;49.080;11.896;2023-05-20T21:56:23;13.82;;;9.25;;
33266;SDS011;19638;49.080;11.896;2023-05-20T22:00:28;13.60;;;9.27;;
33266;SDS011;19638;49.080;11.896;2023-05-20T22:04:31;14.82;;;9.32;;
33266;SDS011;19638;49.080;11.896;2023-05-20T22:08:45;12.40;;;9.20;;
33266;SDS011;19638;49.080;11.896;2023-05-20T22:12:50;12.98;;;9.38;;
33266;SDS011;19638;49.080;11.896;2023-05-20T22:16:58;11.90;;;9.15;;
33266;SDS011;19638;49.080;11.896;2023-05-20T22:21:04;12.60;;;8.73;;
33266;SDS011;19638;49.080;11.896;2023-05-20T22:25:10;14.90;;;9.05;;
33266;SDS011;19638;49.080;11.896;2023-05-20T22:29:14;11.98;;;9.35;;
33266;SDS011;19638;49.080;11.896;2023-05-20T22:33:19;13.20;;;9.23;;
33266;SDS011;19638;49.080;11.896;2023-05-20T22:37:25;11.25;;;8.40;;
33266;SDS011;19638;49.080;11.896;2023-05-20T22:41:31;12.00;;;9.18;;
33266;SDS011;19638;49.080;11.896;2023-05-20T22:45:34;12.27;;;9.10;;
33266;SDS011;19638;49.080;11.896;2023-05-20T22:49:43;13.27;;;9.23;;
33266;SDS011;19638;49.080;11.896;2023-05-20T22:53:49;12.82;;;8.65;;
33266;SDS011;19638;49.080;11.896;2023-05-20T22:57:53;14.48;;;8.98;;
33266;SDS011;19638;49.080;11.896;2023-05-20T23:01:57;17.27;;;10.10;;
33266;SDS011;19638;49.080;11.896;2023-05-20T23:06:00;12.90;;;8.32;;
33266;SDS011;19638;49.080;11.896;2023-05-20T23:10:05;10.70;;;8.45;;
33266;SDS011;19638;49.080;11.896;2023-05-20T23:14:21;14.38;;;8.98;;
33266;SDS011;19638;49.080;11.896;2023-05-20T23:18:25;12.63;;;8.68;;
33266;SDS011;19638;49.080;11.896;2023-05-20T23:22:28;11.02;;;8.23;;
33266;SDS011;19638;49.080;11.896;2023-05-20T23:26:35;15.88;;;8.27;;
33266;SDS011;19638;49.080;11.896;2023-05-20T23:30:50;13.05;;;7.95;;
33266;SDS011;19638;49.080;11.896;2023-05-20T23:34:53;14.52;;;8.80;;
33266;SDS011;19638;49.080;11.896;2023-05-20T23:38:56;16.45;;;9.23;;
33266;SDS011;19638;49.080;11.896;2023-05-20T23:43:02;13.10;;;8.63;;
33266;SDS011;19638;49.080;11.896;2023-05-20T23:47:09;11.70;;;8.85;;
33266;SDS011;19638;49.080;11.896;2023-05-20T23:51:19;11.70;;;8.68;;
33266;SDS011;19638;49.080;11.896;2023-05-20T23:55:26;12.85;;;8.52;;
33266;SDS011;19638;49.080;11.896;2023-05-20T23:59:31;13.90;;;9.15;;
